sensor_id;sensor_type;location;lat;lon;timestamp;P1;durP1;ratioP1;P2;durP2;ratioP2
39846;SDS011;25517;52.422;10.782;2022-08-19T00:01:41;18.55;;;13.20;;
39846;SDS011;25517;52.422;10.782;2022-08-19T00:04:09;17.42;;;13.93;;
39846;SDS011;25517;52.422;10.782;2022-08-19T00:06:36;15.60;;;12.10;;
39846;SDS011;25517;52.422;10.782;2022-08-19T00:09:04;15.85;;;12.40;;
39846;SDS011;25517;52.422;10.782;2022-08-19T00:11:32;17.75;;;13.10;;
39846;SDS011;25517;52.422;10.782;2022-08-19T00:13:59;20.02;;;12.93;;
39846;SDS011;25517;52.422;10.782;2022-08-19T00:16:25;21.15;;;14.05;;
39846;SDS011;25517;52.422;10.782;2022-08-19T00:18:50;15.88;;;12.73;;
39846;SDS011;25517;52.422;10.782;2022-08-19T00:21:16;20.85;;;13.13;;
39846;SDS011;25517;52.422;10.782;2022-08-19T00:23:42;26.95;;;14.07;;
39846;SDS011;25517;52.422;10.782;2022-08-19T00:26:08;20.10;;;14.13;;
39846;SDS011;25517;52.422;10.782;2022-08-19T00:28:35;17.02;;;13.38;;
39846;SDS011;25517;52.422;10.782;2022-08-19T00:31:04;21.83;;;14.68;;
39846;SDS011;25517;52.422;10.782;2022-08-19T00:33:32;18.98;;;14.38;;
39846;SDS011;25517;52.422;10.782;2022-08-19T00:36:01;17.30;;;12.88;;
39846;SDS011;25517;52.422;10.782;2022-08-19T00:38:29;20.15;;;14.00;;
39846;SDS011;25517;52.422;10.782;2022-08-19T00:40:54;24.00;;;14.80;;
39846;SDS011;25517;52.422;10.782;2022-08-19T00:43:21;19.40;;;14.25;;
39846;SDS011;25517;52.422;10.782;2022-08-19T00:45:48;17.45;;;12.73;;
39846;SDS011;25517;52.422;10.782;2022-08-19T00:48:14;18.35;;;13.60;;
39846;SDS011;25517;52.422;10.782;2022-08-19T00:50:41;22.33;;;12.30;;
39846;SDS011;25517;52.422;10.782;2022-08-19T00:53:08;21.90;;;13.45;;
39846;SDS011;25517;52.422;10.782;2022-08-19T00:55:35;19.98;;;14.48;;
39846;SDS011;25517;52.422;10.782;2022-08-19T00:58:05;18.25;;;13.57;;
39846;SDS011;25517;52.422;10.782;2022-08-19T01:00:35;26.60;;;13.88;;
39846;SDS011;25517;52.422;10.782;2022-08-19T01:03:03;21.02;;;15.18;;
39846;SDS011;25517;52.422;10.782;2022-08-19T01:05:30;17.20;;;12.48;;
39846;SDS011;25517;52.422;10.782;2022-08-19T01:07:57;19.83;;;12.77;;
39846;SDS011;25517;52.422;10.782;2022-08-19T01:10:26;17.73;;;12.63;;
39846;SDS011;25517;52.422;10.782;2022-08-19T01:12:53;20.17;;;14.48;;
39846;SDS011;25517;52.422;10.782;2022-08-19T01:15:22;15.88;;;12.32;;
39846;SDS011;25517;52.422;10.782;2022-08-19T01:17:51;18.52;;;13.40;;
39846;SDS011;25517;52.422;10.782;2022-08-19T01:20:19;23.05;;;14.15;;
39846;SDS011;25517;52.422;10.782;2022-08-19T01:22:47;21.10;;;13.70;;
39846;SDS011;25517;52.422;10.782;2022-08-19T01:25:16;14.48;;;12.57;;
39846;SDS011;25517;52.422;10.782;2022-08-19T01:27:45;17.52;;;14.13;;
39846;SDS011;25517;52.422;10.782;2022-08-19T01:30:14;19.55;;;14.27;;
39846;SDS011;25517;52.422;10.782;2022-08-19T01:32:43;17.30;;;13.20;;
39846;SDS011;25517;52.422;10.782;2022-08-19T01:35:09;20.17;;;13.98;;
39846;SDS011;25517;52.422;10.782;2022-08-19T01:37:43;25.98;;;15.20;;
39846;SDS011;25517;52.422;10.782;2022-08-19T01:40:11;20.67;;;14.27;;
39846;SDS011;25517;52.422;10.782;2022-08-19T01:42:37;20.23;;;13.77;;
39846;SDS011;25517;52.422;10.782;2022-08-19T01:45:03;23.25;;;14.38;;
39846;SDS011;25517;52.422;10.782;2022-08-19T01:47:30;18.08;;;12.32;;
39846;SDS011;25517;52.422;10.782;2022-08-19T01:49:56;22.58;;;15.18;;
39846;SDS011;25517;52.422;10.782;2022-08-19T01:52:23;20.45;;;15.07;;
39846;SDS011;25517;52.422;10.782;2022-08-19T01:54:48;17.95;;;12.75;;
39846;SDS011;25517;52.422;10.782;2022-08-19T01:57:14;17.55;;;13.52;;
39846;SDS011;25517;52.422;10.782;2022-08-19T01:59:41;20.05;;;13.75;;
39846;SDS011;25517;52.422;10.782;2022-08-19T02:02:08;16.70;;;12.15;;
39846;SDS011;25517;52.422;10.782;2022-08-19T02:04:34;16.40;;;12.68;;
39846;SDS011;25517;52.422;10.782;2022-08-19T02:07:00;16.80;;;12.73;;
39846;SDS011;25517;52.422;10.782;2022-08-19T02:09:26;17.67;;;12.50;;
39846;SDS011;25517;52.422;10.782;2022-08-19T02:11:51;16.48;;;12.75;;
39846;SDS011;25517;52.422;10.782;2022-08-19T02:14:18;13.90;;;12.10;;
39846;SDS011;25517;52.422;10.782;2022-08-19T02:16:43;14.57;;;11.93;;
39846;SDS011;25517;52.422;10.782;2022-08-19T02:19:09;20.33;;;14.27;;
39846;SDS011;25517;52.422;10.782;2022-08-19T02:21:35;19.33;;;12.75;;
39846;SDS011;25517;52.422;10.782;2022-08-19T02:24:01;15.52;;;12.57;;
39846;SDS011;25517;52.422;10.782;2022-08-19T02:26:27;14.43;;;11.57;;
39846;SDS011;25517;52.422;10.782;2022-08-19T02:28:53;19.10;;;13.93;;
39846;SDS011;25517;52.422;10.782;2022-08-19T02:31:20;21.70;;;12.45;;
39846;SDS011;25517;52.422;10.782;2022-08-19T02:33:47;15.55;;;12.75;;
39846;SDS011;25517;52.422;10.782;2022-08-19T02:36:13;17.77;;;12.25;;
39846;SDS011;25517;52.422;10.782;2022-08-19T02:38:40;16.80;;;11.80;;
39846;SDS011;25517;52.422;10.782;2022-08-19T02:41:08;16.48;;;13.07;;
39846;SDS011;25517;52.422;10.782;2022-08-19T02:43:37;15.80;;;12.82;;
39846;SDS011;25517;52.422;10.782;2022-08-19T02:46:19;19.02;;;13.05;;
39846;SDS011;25517;52.422;10.782;2022-08-19T02:48:50;15.82;;;12.63;;
39846;SDS011;25517;52.422;10.782;2022-08-19T02:51:21;18.65;;;12.70;;
39846;SDS011;25517;52.422;10.782;2022-08-19T02:53:55;15.45;;;13.18;;
39846;SDS011;25517;52.422;10.782;2022-08-19T02:56:21;18.65;;;13.05;;
39846;SDS011;25517;52.422;10.782;2022-08-19T02:58:49;19.85;;;13.25;;
39846;SDS011;25517;52.422;10.782;2022-08-19T03:01:21;17.85;;;13.07;;
39846;SDS011;25517;52.422;10.782;2022-08-19T03:03:58;17.17;;;13.23;;
39846;SDS011;25517;52.422;10.782;2022-08-19T03:06:26;18.33;;;13.20;;
39846;SDS011;25517;52.422;10.782;2022-08-19T03:08:52;18.92;;;13.65;;
39846;SDS011;25517;52.422;10.782;2022-08-19T03:11:20;17.73;;;12.85;;
39846;SDS011;25517;52.422;10.782;2022-08-19T03:13:45;17.58;;;13.02;;
39846;SDS011;25517;52.422;10.782;2022-08-19T03:16:14;13.20;;;11.80;;
39846;SDS011;25517;52.422;10.782;2022-08-19T03:18:40;15.90;;;12.13;;
39846;SDS011;25517;52.422;10.782;2022-08-19T03:21:05;16.27;;;12.57;;
39846;SDS011;25517;52.422;10.782;2022-08-19T03:23:31;15.38;;;12.43;;
39846;SDS011;25517;52.422;10.782;2022-08-19T03:25:57;15.20;;;12.55;;
39846;SDS011;25517;52.422;10.782;2022-08-19T03:28:22;18.48;;;13.27;;
39846;SDS011;25517;52.422;10.782;2022-08-19T03:30:55;16.67;;;13.10;;
39846;SDS011;25517;52.422;10.782;2022-08-19T03:33:27;17.23;;;12.80;;
39846;SDS011;25517;52.422;10.782;2022-08-19T03:36:00;18.20;;;13.07;;
39846;SDS011;25517;52.422;10.782;2022-08-19T03:38:43;17.00;;;12.32;;
39846;SDS011;25517;52.422;10.782;2022-08-19T03:41:12;18.73;;;11.98;;
39846;SDS011;25517;52.422;10.782;2022-08-19T03:43:41;16.38;;;12.02;;
39846;SDS011;25517;52.422;10.782;2022-08-19T03:46:08;17.27;;;12.20;;
39846;SDS011;25517;52.422;10.782;2022-08-19T03:48:36;13.60;;;11.05;;
39846;SDS011;25517;52.422;10.782;2022-08-19T03:51:03;21.23;;;12.40;;
39846;SDS011;25517;52.422;10.782;2022-08-19T03:53:30;16.45;;;11.85;;
39846;SDS011;25517;52.422;10.782;2022-08-19T03:55:57;16.15;;;12.82;;
39846;SDS011;25517;52.422;10.782;2022-08-19T03:58:27;12.25;;;10.95;;
39846;SDS011;25517;52.422;10.782;2022-08-19T04:00:57;14.05;;;12.07;;
39846;SDS011;25517;52.422;10.782;2022-08-19T04:03:26;16.70;;;12.10;;
39846;SDS011;25517;52.422;10.782;2022-08-19T04:05:51;16.83;;;11.85;;
39846;SDS011;25517;52.422;10.782;2022-08-19T04:08:18;18.67;;;13.02;;
39846;SDS011;25517;52.422;10.782;2022-08-19T04:10:47;16.83;;;11.25;;
39846;SDS011;25517;52.422;10.782;2022-08-19T04:13:14;17.17;;;11.77;;
39846;SDS011;25517;52.422;10.782;2022-08-19T04:15:41;14.75;;;11.32;;
39846;SDS011;25517;52.422;10.782;2022-08-19T04:18:08;17.60;;;11.85;;
39846;SDS011;25517;52.422;10.782;2022-08-19T04:20:44;15.68;;;12.02;;
39846;SDS011;25517;52.422;10.782;2022-08-19T04:23:11;16.20;;;11.57;;
39846;SDS011;25517;52.422;10.782;2022-08-19T04:25:39;15.88;;;11.13;;
39846;SDS011;25517;52.422;10.782;2022-08-19T04:28:07;17.77;;;11.07;;
39846;SDS011;25517;52.422;10.782;2022-08-19T04:30:53;17.25;;;11.40;;
39846;SDS011;25517;52.422;10.782;2022-08-19T04:33:22;20.90;;;11.20;;
39846;SDS011;25517;52.422;10.782;2022-08-19T04:35:50;15.68;;;11.35;;
39846;SDS011;25517;52.422;10.782;2022-08-19T04:38:18;20.70;;;11.25;;
39846;SDS011;25517;52.422;10.782;2022-08-19T04:40:49;16.50;;;10.93;;
39846;SDS011;25517;52.422;10.782;2022-08-19T04:43:34;17.67;;;12.55;;
39846;SDS011;25517;52.422;10.782;2022-08-19T04:48:46;18.38;;;11.25;;
39846;SDS011;25517;52.422;10.782;2022-08-19T04:51:12;17.70;;;11.75;;
39846;SDS011;25517;52.422;10.782;2022-08-19T04:53:39;14.95;;;11.23;;
39846;SDS011;25517;52.422;10.782;2022-08-19T04:56:11;13.38;;;10.05;;
39846;SDS011;25517;52.422;10.782;2022-08-19T04:58:40;15.65;;;10.35;;
39846;SDS011;25517;52.422;10.782;2022-08-19T05:01:09;16.20;;;10.77;;
39846;SDS011;25517;52.422;10.782;2022-08-19T05:03:39;15.63;;;11.20;;
39846;SDS011;25517;52.422;10.782;2022-08-19T05:06:06;17.45;;;10.32;;
39846;SDS011;25517;52.422;10.782;2022-08-19T05:08:35;15.10;;;9.68;;
39846;SDS011;25517;52.422;10.782;2022-08-19T05:11:07;14.95;;;10.32;;
39846;SDS011;25517;52.422;10.782;2022-08-19T05:13:36;13.25;;;10.65;;
39846;SDS011;25517;52.422;10.782;2022-08-19T05:16:02;15.77;;;10.02;;
39846;SDS011;25517;52.422;10.782;2022-08-19T05:18:28;12.73;;;10.07;;
39846;SDS011;25517;52.422;10.782;2022-08-19T05:21:13;13.05;;;10.35;;
39846;SDS011;25517;52.422;10.782;2022-08-19T05:23:59;13.48;;;10.80;;
39846;SDS011;25517;52.422;10.782;2022-08-19T05:26:25;13.10;;;9.77;;
39846;SDS011;25517;52.422;10.782;2022-08-19T05:28:51;12.00;;;9.73;;
39846;SDS011;25517;52.422;10.782;2022-08-19T05:31:18;18.13;;;10.52;;
39846;SDS011;25517;52.422;10.782;2022-08-19T05:33:44;15.85;;;10.68;;
39846;SDS011;25517;52.422;10.782;2022-08-19T05:36:09;17.90;;;11.35;;
39846;SDS011;25517;52.422;10.782;2022-08-19T05:38:35;14.68;;;10.15;;
39846;SDS011;25517;52.422;10.782;2022-08-19T05:41:05;14.32;;;9.75;;
39846;SDS011;25517;52.422;10.782;2022-08-19T05:43:35;17.02;;;10.40;;
39846;SDS011;25517;52.422;10.782;2022-08-19T05:46:01;13.52;;;9.88;;
39846;SDS011;25517;52.422;10.782;2022-08-19T05:48:29;13.88;;;9.98;;
39846;SDS011;25517;52.422;10.782;2022-08-19T05:50:55;14.98;;;10.15;;
39846;SDS011;25517;52.422;10.782;2022-08-19T05:53:23;13.35;;;9.45;;
39846;SDS011;25517;52.422;10.782;2022-08-19T05:55:48;13.45;;;9.52;;
39846;SDS011;25517;52.422;10.782;2022-08-19T05:58:13;14.07;;;9.07;;
39846;SDS011;25517;52.422;10.782;2022-08-19T06:00:39;16.27;;;9.77;;
39846;SDS011;25517;52.422;10.782;2022-08-19T06:03:07;12.00;;;9.32;;
39846;SDS011;25517;52.422;10.782;2022-08-19T06:05:33;14.13;;;9.70;;
39846;SDS011;25517;52.422;10.782;2022-08-19T06:07:58;21.92;;;16.70;;
39846;SDS011;25517;52.422;10.782;2022-08-19T06:10:24;14.48;;;10.30;;
39846;SDS011;25517;52.422;10.782;2022-08-19T06:12:51;14.60;;;9.32;;
39846;SDS011;25517;52.422;10.782;2022-08-19T06:15:17;11.02;;;8.65;;
39846;SDS011;25517;52.422;10.782;2022-08-19T06:17:42;15.85;;;9.38;;
39846;SDS011;25517;52.422;10.782;2022-08-19T06:20:10;15.35;;;9.38;;
39846;SDS011;25517;52.422;10.782;2022-08-19T06:22:39;11.18;;;7.82;;
39846;SDS011;25517;52.422;10.782;2022-08-19T06:25:06;13.70;;;8.88;;
39846;SDS011;25517;52.422;10.782;2022-08-19T06:27:33;15.02;;;8.98;;
39846;SDS011;25517;52.422;10.782;2022-08-19T06:29:59;16.60;;;9.80;;
39846;SDS011;25517;52.422;10.782;2022-08-19T06:32:25;16.23;;;9.20;;
39846;SDS011;25517;52.422;10.782;2022-08-19T06:34:51;10.80;;;8.35;;
39846;SDS011;25517;52.422;10.782;2022-08-19T06:37:16;14.88;;;8.65;;
39846;SDS011;25517;52.422;10.782;2022-08-19T06:39:43;11.30;;;8.75;;
39846;SDS011;25517;52.422;10.782;2022-08-19T06:42:09;12.48;;;10.00;;
39846;SDS011;25517;52.422;10.782;2022-08-19T06:44:41;13.23;;;8.90;;
39846;SDS011;25517;52.422;10.782;2022-08-19T06:47:08;17.25;;;11.30;;
39846;SDS011;25517;52.422;10.782;2022-08-19T06:49:36;11.18;;;9.85;;
39846;SDS011;25517;52.422;10.782;2022-08-19T06:52:02;16.98;;;10.13;;
39846;SDS011;25517;52.422;10.782;2022-08-19T06:54:28;15.57;;;10.63;;
39846;SDS011;25517;52.422;10.782;2022-08-19T06:56:54;18.40;;;9.77;;
39846;SDS011;25517;52.422;10.782;2022-08-19T06:59:21;15.55;;;10.85;;
39846;SDS011;25517;52.422;10.782;2022-08-19T07:01:52;18.30;;;9.35;;
39846;SDS011;25517;52.422;10.782;2022-08-19T07:04:21;16.83;;;10.25;;
39846;SDS011;25517;52.422;10.782;2022-08-19T07:06:49;15.60;;;10.63;;
39846;SDS011;25517;52.422;10.782;2022-08-19T07:09:21;14.38;;;9.77;;
39846;SDS011;25517;52.422;10.782;2022-08-19T07:11:48;15.13;;;11.15;;
39846;SDS011;25517;52.422;10.782;2022-08-19T07:14:16;14.25;;;10.95;;
39846;SDS011;25517;52.422;10.782;2022-08-19T07:16:43;14.93;;;10.13;;
39846;SDS011;25517;52.422;10.782;2022-08-19T07:19:10;16.20;;;10.75;;
39846;SDS011;25517;52.422;10.782;2022-08-19T07:21:36;16.40;;;9.63;;
39846;SDS011;25517;52.422;10.782;2022-08-19T07:24:02;12.20;;;9.95;;
39846;SDS011;25517;52.422;10.782;2022-08-19T07:26:29;14.20;;;10.95;;
39846;SDS011;25517;52.422;10.782;2022-08-19T07:28:57;14.50;;;10.98;;
39846;SDS011;25517;52.422;10.782;2022-08-19T07:31:25;17.92;;;11.00;;
39846;SDS011;25517;52.422;10.782;2022-08-19T07:33:52;15.18;;;10.02;;
39846;SDS011;25517;52.422;10.782;2022-08-19T07:36:24;16.98;;;11.68;;
39846;SDS011;25517;52.422;10.782;2022-08-19T07:38:53;13.05;;;10.80;;
39846;SDS011;25517;52.422;10.782;2022-08-19T07:41:20;16.13;;;11.48;;
39846;SDS011;25517;52.422;10.782;2022-08-19T07:43:48;15.35;;;10.40;;
39846;SDS011;25517;52.422;10.782;2022-08-19T07:46:14;16.77;;;11.57;;
39846;SDS011;25517;52.422;10.782;2022-08-19T07:48:42;13.45;;;10.25;;
39846;SDS011;25517;52.422;10.782;2022-08-19T07:51:10;13.82;;;10.75;;
39846;SDS011;25517;52.422;10.782;2022-08-19T07:53:36;12.27;;;10.15;;
39846;SDS011;25517;52.422;10.782;2022-08-19T07:56:03;15.50;;;11.18;;
39846;SDS011;25517;52.422;10.782;2022-08-19T07:58:30;12.35;;;9.70;;
39846;SDS011;25517;52.422;10.782;2022-08-19T08:00:57;16.23;;;11.15;;
39846;SDS011;25517;52.422;10.782;2022-08-19T08:03:24;19.15;;;12.15;;
39846;SDS011;25517;52.422;10.782;2022-08-19T08:06:11;17.50;;;10.57;;
39846;SDS011;25517;52.422;10.782;2022-08-19T08:08:56;17.38;;;11.45;;
39846;SDS011;25517;52.422;10.782;2022-08-19T08:11:41;15.30;;;11.75;;
39846;SDS011;25517;52.422;10.782;2022-08-19T08:14:19;16.20;;;11.82;;
39846;SDS011;25517;52.422;10.782;2022-08-19T08:16:47;19.52;;;12.18;;
39846;SDS011;25517;52.422;10.782;2022-08-19T08:19:15;15.10;;;11.23;;
39846;SDS011;25517;52.422;10.782;2022-08-19T08:21:41;15.73;;;12.02;;
39846;SDS011;25517;52.422;10.782;2022-08-19T08:24:07;21.50;;;12.95;;
39846;SDS011;25517;52.422;10.782;2022-08-19T08:26:33;18.58;;;13.40;;
39846;SDS011;25517;52.422;10.782;2022-08-19T08:28:59;15.77;;;12.10;;
39846;SDS011;25517;52.422;10.782;2022-08-19T08:31:24;14.45;;;11.95;;
39846;SDS011;25517;52.422;10.782;2022-08-19T08:33:50;16.23;;;12.57;;
39846;SDS011;25517;52.422;10.782;2022-08-19T08:36:15;17.98;;;13.82;;
39846;SDS011;25517;52.422;10.782;2022-08-19T08:38:41;18.30;;;13.68;;
39846;SDS011;25517;52.422;10.782;2022-08-19T08:43:55;20.15;;;14.85;;
39846;SDS011;25517;52.422;10.782;2022-08-19T08:49:16;16.98;;;13.25;;
39846;SDS011;25517;52.422;10.782;2022-08-19T08:54:57;18.67;;;13.13;;
39846;SDS011;25517;52.422;10.782;2022-08-19T08:57:29;15.85;;;13.05;;
39846;SDS011;25517;52.422;10.782;2022-08-19T09:00:06;16.80;;;13.13;;
39846;SDS011;25517;52.422;10.782;2022-08-19T09:02:35;18.63;;;14.10;;
39846;SDS011;25517;52.422;10.782;2022-08-19T09:05:00;18.63;;;13.32;;
39846;SDS011;25517;52.422;10.782;2022-08-19T09:10:10;18.25;;;13.70;;
39846;SDS011;25517;52.422;10.782;2022-08-19T09:13:02;18.27;;;12.70;;
39846;SDS011;25517;52.422;10.782;2022-08-19T09:15:35;20.27;;;14.50;;
39846;SDS011;25517;52.422;10.782;2022-08-19T09:18:05;21.63;;;15.48;;
39846;SDS011;25517;52.422;10.782;2022-08-19T09:20:31;24.85;;;15.40;;
39846;SDS011;25517;52.422;10.782;2022-08-19T09:22:56;19.75;;;14.73;;
39846;SDS011;25517;52.422;10.782;2022-08-19T09:25:23;21.80;;;14.85;;
39846;SDS011;25517;52.422;10.782;2022-08-19T09:27:49;17.08;;;13.52;;
39846;SDS011;25517;52.422;10.782;2022-08-19T09:30:25;19.50;;;14.15;;
39846;SDS011;25517;52.422;10.782;2022-08-19T09:32:53;15.95;;;13.60;;
39846;SDS011;25517;52.422;10.782;2022-08-19T09:35:23;21.15;;;14.05;;
39846;SDS011;25517;52.422;10.782;2022-08-19T09:37:50;17.48;;;12.85;;
39846;SDS011;25517;52.422;10.782;2022-08-19T09:40:16;17.40;;;13.68;;
39846;SDS011;25517;52.422;10.782;2022-08-19T09:42:43;22.02;;;14.48;;
39846;SDS011;25517;52.422;10.782;2022-08-19T09:45:12;17.52;;;13.38;;
39846;SDS011;25517;52.422;10.782;2022-08-19T09:47:38;18.42;;;12.73;;
39846;SDS011;25517;52.422;10.782;2022-08-19T09:50:05;19.58;;;12.40;;
39846;SDS011;25517;52.422;10.782;2022-08-19T09:52:32;15.68;;;12.40;;
39846;SDS011;25517;52.422;10.782;2022-08-19T09:54:59;18.95;;;13.30;;
39846;SDS011;25517;52.422;10.782;2022-08-19T09:57:25;19.30;;;12.15;;
39846;SDS011;25517;52.422;10.782;2022-08-19T09:59:50;18.05;;;12.32;;
39846;SDS011;25517;52.422;10.782;2022-08-19T10:02:16;17.80;;;12.50;;
39846;SDS011;25517;52.422;10.782;2022-08-19T10:04:42;15.70;;;11.57;;
39846;SDS011;25517;52.422;10.782;2022-08-19T10:07:26;16.17;;;11.75;;
39846;SDS011;25517;52.422;10.782;2022-08-19T10:09:54;16.10;;;12.35;;
39846;SDS011;25517;52.422;10.782;2022-08-19T10:12:20;16.17;;;11.93;;
39846;SDS011;25517;52.422;10.782;2022-08-19T10:14:45;14.15;;;11.13;;
39846;SDS011;25517;52.422;10.782;2022-08-19T10:17:11;16.45;;;12.02;;
39846;SDS011;25517;52.422;10.782;2022-08-19T10:19:37;16.48;;;11.77;;
39846;SDS011;25517;52.422;10.782;2022-08-19T10:22:04;16.73;;;12.50;;
39846;SDS011;25517;52.422;10.782;2022-08-19T10:24:30;15.75;;;12.80;;
39846;SDS011;25517;52.422;10.782;2022-08-19T10:26:56;17.83;;;12.63;;
39846;SDS011;25517;52.422;10.782;2022-08-19T10:29:21;23.35;;;18.75;;
39846;SDS011;25517;52.422;10.782;2022-08-19T10:31:47;15.10;;;11.50;;
39846;SDS011;25517;52.422;10.782;2022-08-19T10:34:13;13.88;;;11.63;;
39846;SDS011;25517;52.422;10.782;2022-08-19T10:36:38;14.40;;;9.88;;
39846;SDS011;25517;52.422;10.782;2022-08-19T10:39:05;12.02;;;9.35;;
39846;SDS011;25517;52.422;10.782;2022-08-19T10:41:33;11.82;;;9.30;;
39846;SDS011;25517;52.422;10.782;2022-08-19T10:44:02;11.00;;;9.20;;
39846;SDS011;25517;52.422;10.782;2022-08-19T10:46:31;13.20;;;9.20;;
39846;SDS011;25517;52.422;10.782;2022-08-19T10:48:59;10.43;;;9.20;;
39846;SDS011;25517;52.422;10.782;2022-08-19T10:51:26;10.85;;;9.18;;
39846;SDS011;25517;52.422;10.782;2022-08-19T10:54:10;11.45;;;8.75;;
39846;SDS011;25517;52.422;10.782;2022-08-19T10:56:36;11.88;;;8.23;;
39846;SDS011;25517;52.422;10.782;2022-08-19T10:59:24;13.15;;;9.23;;
39846;SDS011;25517;52.422;10.782;2022-08-19T11:01:52;12.15;;;8.57;;
39846;SDS011;25517;52.422;10.782;2022-08-19T11:04:20;10.90;;;8.45;;
39846;SDS011;25517;52.422;10.782;2022-08-19T11:06:48;10.15;;;9.05;;
39846;SDS011;25517;52.422;10.782;2022-08-19T11:09:15;9.57;;;7.57;;
39846;SDS011;25517;52.422;10.782;2022-08-19T11:11:51;18.75;;;8.65;;
39846;SDS011;25517;52.422;10.782;2022-08-19T11:14:18;8.85;;;7.88;;
39846;SDS011;25517;52.422;10.782;2022-08-19T11:16:45;12.02;;;8.00;;
39846;SDS011;25517;52.422;10.782;2022-08-19T11:19:16;9.48;;;7.63;;
39846;SDS011;25517;52.422;10.782;2022-08-19T11:21:44;9.20;;;7.38;;
39846;SDS011;25517;52.422;10.782;2022-08-19T11:24:13;10.18;;;6.80;;
39846;SDS011;25517;52.422;10.782;2022-08-19T11:26:41;8.60;;;6.63;;
39846;SDS011;25517;52.422;10.782;2022-08-19T11:29:08;7.07;;;6.40;;
39846;SDS011;25517;52.422;10.782;2022-08-19T11:31:37;7.90;;;6.78;;
39846;SDS011;25517;52.422;10.782;2022-08-19T11:34:06;8.40;;;7.07;;
39846;SDS011;25517;52.422;10.782;2022-08-19T11:36:33;9.15;;;6.95;;
39846;SDS011;25517;52.422;10.782;2022-08-19T11:39:02;7.68;;;6.20;;
39846;SDS011;25517;52.422;10.782;2022-08-19T11:41:29;6.85;;;5.93;;
39846;SDS011;25517;52.422;10.782;2022-08-19T11:43:55;7.75;;;5.90;;
39846;SDS011;25517;52.422;10.782;2022-08-19T11:46:22;10.43;;;6.80;;
39846;SDS011;25517;52.422;10.782;2022-08-19T11:48:49;8.10;;;6.13;;
39846;SDS011;25517;52.422;10.782;2022-08-19T11:51:16;8.60;;;7.20;;
39846;SDS011;25517;52.422;10.782;2022-08-19T11:53:44;11.75;;;6.88;;
39846;SDS011;25517;52.422;10.782;2022-08-19T11:56:10;8.15;;;6.47;;
39846;SDS011;25517;52.422;10.782;2022-08-19T11:58:36;8.82;;;6.63;;
39846;SDS011;25517;52.422;10.782;2022-08-19T12:01:05;8.63;;;7.18;;
39846;SDS011;25517;52.422;10.782;2022-08-19T12:03:32;7.35;;;6.13;;
39846;SDS011;25517;52.422;10.782;2022-08-19T12:05:58;7.82;;;7.03;;
39846;SDS011;25517;52.422;10.782;2022-08-19T12:08:32;8.05;;;6.50;;
39846;SDS011;25517;52.422;10.782;2022-08-19T12:10:57;9.38;;;6.25;;
39846;SDS011;25517;52.422;10.782;2022-08-19T12:13:25;8.07;;;6.10;;
39846;SDS011;25517;52.422;10.782;2022-08-19T12:15:51;10.30;;;6.30;;
39846;SDS011;25517;52.422;10.782;2022-08-19T12:18:17;9.20;;;6.38;;
39846;SDS011;25517;52.422;10.782;2022-08-19T12:20:43;10.40;;;7.70;;
39846;SDS011;25517;52.422;10.782;2022-08-19T12:23:10;8.18;;;6.70;;
39846;SDS011;25517;52.422;10.782;2022-08-19T12:25:36;9.20;;;7.22;;
39846;SDS011;25517;52.422;10.782;2022-08-19T12:28:03;7.90;;;6.38;;
39846;SDS011;25517;52.422;10.782;2022-08-19T12:30:28;7.20;;;6.30;;
39846;SDS011;25517;52.422;10.782;2022-08-19T12:32:54;8.75;;;6.45;;
39846;SDS011;25517;52.422;10.782;2022-08-19T12:35:19;8.38;;;6.65;;
39846;SDS011;25517;52.422;10.782;2022-08-19T12:37:45;7.07;;;6.00;;
39846;SDS011;25517;52.422;10.782;2022-08-19T12:40:12;8.35;;;6.75;;
39846;SDS011;25517;52.422;10.782;2022-08-19T12:42:38;8.93;;;7.25;;
39846;SDS011;25517;52.422;10.782;2022-08-19T12:45:07;8.55;;;6.60;;
39846;SDS011;25517;52.422;10.782;2022-08-19T12:47:35;8.32;;;7.50;;
39846;SDS011;25517;52.422;10.782;2022-08-19T12:50:01;11.30;;;6.68;;
39846;SDS011;25517;52.422;10.782;2022-08-19T12:52:27;10.88;;;6.25;;
39846;SDS011;25517;52.422;10.782;2022-08-19T12:54:53;6.57;;;5.78;;
39846;SDS011;25517;52.422;10.782;2022-08-19T12:57:20;9.23;;;6.25;;
39846;SDS011;25517;52.422;10.782;2022-08-19T12:59:47;8.57;;;6.85;;
39846;SDS011;25517;52.422;10.782;2022-08-19T13:02:18;8.23;;;6.10;;
39846;SDS011;25517;52.422;10.782;2022-08-19T13:04:44;7.00;;;5.80;;
39846;SDS011;25517;52.422;10.782;2022-08-19T13:07:10;6.93;;;5.88;;
39846;SDS011;25517;52.422;10.782;2022-08-19T13:09:37;7.93;;;6.38;;
39846;SDS011;25517;52.422;10.782;2022-08-19T13:12:03;6.35;;;5.55;;
39846;SDS011;25517;52.422;10.782;2022-08-19T13:14:32;9.60;;;6.47;;
39846;SDS011;25517;52.422;10.782;2022-08-19T13:16:58;8.80;;;6.28;;
39846;SDS011;25517;52.422;10.782;2022-08-19T13:19:24;8.52;;;5.82;;
39846;SDS011;25517;52.422;10.782;2022-08-19T13:21:50;8.90;;;6.13;;
39846;SDS011;25517;52.422;10.782;2022-08-19T13:24:16;8.80;;;6.63;;
39846;SDS011;25517;52.422;10.782;2022-08-19T13:26:42;7.43;;;5.80;;
39846;SDS011;25517;52.422;10.782;2022-08-19T13:29:08;6.90;;;6.20;;
39846;SDS011;25517;52.422;10.782;2022-08-19T13:31:52;8.95;;;6.75;;
39846;SDS011;25517;52.422;10.782;2022-08-19T13:34:36;9.27;;;7.10;;
39846;SDS011;25517;52.422;10.782;2022-08-19T13:37:02;13.45;;;6.30;;
39846;SDS011;25517;52.422;10.782;2022-08-19T13:39:29;10.20;;;7.28;;
39846;SDS011;25517;52.422;10.782;2022-08-19T13:41:57;11.80;;;6.35;;
39846;SDS011;25517;52.422;10.782;2022-08-19T13:44:25;10.45;;;6.70;;
39846;SDS011;25517;52.422;10.782;2022-08-19T13:46:54;12.05;;;6.75;;
39846;SDS011;25517;52.422;10.782;2022-08-19T13:49:25;7.25;;;6.38;;
39846;SDS011;25517;52.422;10.782;2022-08-19T13:54:21;7.68;;;6.35;;
39846;SDS011;25517;52.422;10.782;2022-08-19T13:56:47;8.70;;;6.40;;
39846;SDS011;25517;52.422;10.782;2022-08-19T13:59:13;9.07;;;6.57;;
39846;SDS011;25517;52.422;10.782;2022-08-19T14:01:39;7.22;;;6.13;;
39846;SDS011;25517;52.422;10.782;2022-08-19T14:04:05;6.47;;;5.40;;
39846;SDS011;25517;52.422;10.782;2022-08-19T14:06:31;10.20;;;6.65;;
39846;SDS011;25517;52.422;10.782;2022-08-19T14:08:57;6.53;;;5.93;;
39846;SDS011;25517;52.422;10.782;2022-08-19T14:11:22;8.23;;;6.30;;
39846;SDS011;25517;52.422;10.782;2022-08-19T14:13:48;7.55;;;6.07;;
39846;SDS011;25517;52.422;10.782;2022-08-19T14:16:14;5.85;;;5.20;;
39846;SDS011;25517;52.422;10.782;2022-08-19T14:18:39;8.73;;;5.45;;
39846;SDS011;25517;52.422;10.782;2022-08-19T14:21:06;9.27;;;6.35;;
39846;SDS011;25517;52.422;10.782;2022-08-19T14:23:32;6.15;;;5.35;;
39846;SDS011;25517;52.422;10.782;2022-08-19T14:26:06;7.05;;;5.55;;
39846;SDS011;25517;52.422;10.782;2022-08-19T14:28:34;6.88;;;5.97;;
39846;SDS011;25517;52.422;10.782;2022-08-19T14:30:59;6.43;;;5.55;;
39846;SDS011;25517;52.422;10.782;2022-08-19T14:33:25;6.80;;;5.00;;
39846;SDS011;25517;52.422;10.782;2022-08-19T14:35:50;8.05;;;5.57;;
39846;SDS011;25517;52.422;10.782;2022-08-19T14:38:17;6.22;;;5.55;;